Terminal Aerodrome Forecast
Issued by NWS

Home | Current Version | Previous Version | Text Only | Print | Product List | Glossary On
Versions: 1 2 3 4 5 6 7 8 9 10 11 12 13 14 15 16 17 18 19 20 21 22 23
000
FTUS43 KLSX 291100
TAFUIN
TAF
KUIN 291139Z 2912/3012 33008KT 3/4SM BR OVC005
     FM291500 33008KT 2SM BR BKN010
     FM291700 32012KT P6SM BKN025
     FM291900 31011KT P6SM BKN040
     FM300100 29010KT P6SM SCT060=

USA.gov is the U.S. government's official web portal to all federal, state and local government web resources and services.